createdAt,value
2022-08-03T00:01:31.199Z,2.03
2022-08-03T00:03:57.587Z,2.00
2022-08-03T00:06:24.047Z,2.90
2022-08-03T00:08:50.462Z,1.90
2022-08-03T00:11:16.894Z,2.63
2022-08-03T00:13:43.419Z,2.90
2022-08-03T00:16:10.728Z,2.97
2022-08-03T00:18:37.627Z,2.10
2022-08-03T00:21:04.530Z,2.10
2022-08-03T00:23:51.632Z,2.63
2022-08-03T00:26:17.538Z,2.80
2022-08-03T00:28:43.938Z,2.57
2022-08-03T00:31:13.500Z,2.30
2022-08-03T00:33:59.643Z,2.40
2022-08-03T00:36:27.668Z,2.63
2022-08-03T00:38:54.192Z,2.10
2022-08-03T00:41:20.875Z,2.60
2022-08-03T00:43:47.710Z,3.10
2022-08-03T00:46:17.671Z,3.77
2022-08-03T00:48:49.246Z,2.60
2022-08-03T00:51:15.908Z,2.33
2022-08-03T00:53:43.362Z,2.37
2022-08-03T00:56:13.608Z,2.70
2022-08-03T00:58:40.123Z,2.63
2022-08-03T01:01:07.262Z,3.03
2022-08-03T01:03:33.896Z,3.33
2022-08-03T01:06:15.735Z,2.87
2022-08-03T01:09:06.280Z,2.53
2022-08-03T01:12:01.205Z,3.30
2022-08-03T01:14:44.271Z,3.00
2022-08-03T01:17:23.082Z,2.70
2022-08-03T01:20:12.134Z,3.33
2022-08-03T01:23:12.617Z,2.50
2022-08-03T01:25:54.698Z,3.37
2022-08-03T01:28:39.353Z,2.87
2022-08-03T01:31:08.725Z,2.83
2022-08-03T01:33:44.220Z,2.90
2022-08-03T01:36:14.549Z,2.97
2022-08-03T01:38:50.043Z,3.03
2022-08-03T01:41:22.729Z,2.37
2022-08-03T01:44:26.485Z,3.00
2022-08-03T01:46:40.418Z,2.90
2022-08-03T01:49:15.013Z,2.97
2022-08-03T01:52:02.804Z,2.90
2022-08-03T01:54:30.966Z,3.40
2022-08-03T01:56:59.553Z,3.30
2022-08-03T01:59:28.914Z,3.00
2022-08-03T02:02:29.075Z,2.90
2022-08-03T02:04:46.901Z,3.30
2022-08-03T02:07:14.959Z,3.47
2022-08-03T02:09:45.053Z,3.83
2022-08-03T02:12:13.922Z,2.83
2022-08-03T02:14:43.257Z,3.30
2022-08-03T02:17:11.123Z,3.53
2022-08-03T02:19:38.742Z,3.20
2022-08-03T02:22:08.372Z,4.17
2022-08-03T02:24:34.831Z,4.30
2022-08-03T02:27:04.005Z,3.83
2022-08-03T02:29:40.070Z,3.70
2022-08-03T02:32:10.620Z,3.60
2022-08-03T02:34:38.060Z,3.13
2022-08-03T02:37:06.010Z,3.33
2022-08-03T02:39:35.412Z,3.33
2022-08-03T02:42:05.481Z,5.10
2022-08-03T02:44:34.123Z,3.73
2022-08-03T02:47:09.409Z,3.63
2022-08-03T02:49:50.556Z,4.00
2022-08-03T02:52:23.966Z,4.00
2022-08-03T02:54:54.867Z,3.60
2022-08-03T02:57:22.828Z,4.10
2022-08-03T02:59:51.418Z,4.10
2022-08-03T03:02:18.430Z,4.30
2022-08-03T03:04:58.869Z,3.70
2022-08-03T03:07:41.034Z,4.57
2022-08-03T03:10:21.278Z,3.93
2022-08-03T03:12:50.192Z,4.07
2022-08-03T03:15:16.722Z,4.23
2022-08-03T03:17:44.161Z,4.10
2022-08-03T03:20:11.974Z,4.53
2022-08-03T03:22:39.997Z,4.67
2022-08-03T03:25:07.452Z,3.50
2022-08-03T03:27:34.135Z,3.90
2022-08-03T03:30:00.764Z,4.17
2022-08-03T03:32:28.835Z,3.80
2022-08-03T03:34:56.654Z,3.83
2022-08-03T03:37:23.060Z,4.60
2022-08-03T03:39:49.563Z,3.67
2022-08-03T03:42:16.435Z,4.87
2022-08-03T03:44:43.196Z,3.97
2022-08-03T03:47:09.705Z,3.80
2022-08-03T03:49:37.796Z,4.37
2022-08-03T03:52:04.528Z,4.60
2022-08-03T03:54:44.495Z,4.30
2022-08-03T03:57:12.907Z,6.90
2022-08-03T03:59:41.591Z,5.00
2022-08-03T04:02:09.771Z,4.30
2022-08-03T04:04:55.851Z,4.67
2022-08-03T04:07:43.419Z,4.33
2022-08-03T04:10:37.068Z,4.33
2022-08-03T04:13:09.882Z,5.03
2022-08-03T04:15:39.412Z,4.13
2022-08-03T04:18:09.780Z,5.47
2022-08-03T04:20:38.983Z,4.23
2022-08-03T04:23:13.694Z,4.73
2022-08-03T04:25:43.850Z,4.53
2022-08-03T04:28:29.549Z,4.17
2022-08-03T04:30:57.741Z,5.87
2022-08-03T04:33:29.466Z,4.53
2022-08-03T04:36:01.579Z,4.40
2022-08-03T04:38:32.788Z,4.60
2022-08-03T04:41:00.897Z,4.47
2022-08-03T04:43:28.639Z,5.43
2022-08-03T04:45:56.784Z,5.17
2022-08-03T04:48:23.298Z,4.80
2022-08-03T04:50:49.934Z,4.47
2022-08-03T04:53:17.788Z,4.57
2022-08-03T04:55:44.544Z,4.37
2022-08-03T04:58:10.958Z,4.70
2022-08-03T05:00:37.377Z,4.50
2022-08-03T05:03:03.993Z,4.63
2022-08-03T05:05:49.780Z,5.13
2022-08-03T05:08:17.110Z,4.60
2022-08-03T05:10:47.584Z,4.03
2022-08-03T05:13:14.571Z,4.83
2022-08-03T05:15:42.830Z,4.33
2022-08-03T05:18:13.915Z,4.60
2022-08-03T05:20:41.141Z,5.50
2022-08-03T05:23:07.590Z,4.97
2022-08-03T05:25:34.006Z,4.70
2022-08-03T05:28:00.427Z,4.77
2022-08-03T05:30:33.872Z,4.43
2022-08-03T05:33:01.881Z,4.80
2022-08-03T05:36:02.362Z,4.93
2022-08-03T05:38:20.842Z,4.83
2022-08-03T05:40:57.325Z,4.50
2022-08-03T05:43:40.757Z,5.07
2022-08-03T05:46:11.885Z,5.70
2022-08-03T05:48:39.177Z,5.40
2022-08-03T05:51:07.580Z,4.67
2022-08-03T05:53:34.419Z,5.00
2022-08-03T05:56:03.605Z,4.23
2022-08-03T05:58:41.871Z,4.67
2022-08-03T06:01:08.445Z,5.00
2022-08-03T06:03:34.891Z,5.97
2022-08-03T06:06:01.502Z,4.47
2022-08-03T06:08:27.934Z,4.43
2022-08-03T06:10:54.312Z,4.40
2022-08-03T06:13:20.699Z,4.30
2022-08-03T06:15:47.111Z,4.33
2022-08-03T06:18:13.624Z,4.23
2022-08-03T06:20:40.047Z,4.20
2022-08-03T06:23:06.456Z,5.13
2022-08-03T06:25:34.018Z,4.90
2022-08-03T06:28:00.486Z,4.20
2022-08-03T06:30:27.259Z,4.40
2022-08-03T06:32:53.717Z,4.43
2022-08-03T06:35:20.631Z,3.90
2022-08-03T06:37:51.204Z,6.53
2022-08-03T06:40:24.392Z,4.77
2022-08-03T06:42:51.148Z,5.03
2022-08-03T06:45:18.028Z,4.70
2022-08-03T06:47:44.688Z,4.67
2022-08-03T06:50:17.185Z,4.80
2022-08-03T06:52:45.326Z,4.40
2022-08-03T06:55:11.853Z,4.67
2022-08-03T06:57:38.287Z,4.10
2022-08-03T07:00:10.054Z,3.03
2022-08-03T07:02:39.844Z,3.67
2022-08-03T07:05:07.306Z,3.40
2022-08-03T07:07:33.754Z,2.93
2022-08-03T07:10:00.436Z,2.43
2022-08-03T07:12:29.680Z,2.83
2022-08-03T07:15:00.729Z,2.70
2022-08-03T07:17:28.139Z,3.03
2022-08-03T07:19:54.578Z,3.60
2022-08-03T07:22:21.002Z,3.80
2022-08-03T07:24:47.759Z,3.37
2022-08-03T07:27:16.340Z,2.80
2022-08-03T07:29:42.910Z,2.87
2022-08-03T07:32:09.526Z,2.87
2022-08-03T07:34:35.949Z,3.10
2022-08-03T07:37:02.445Z,3.27
2022-08-03T07:39:28.907Z,3.37
2022-08-03T07:41:55.328Z,3.20
2022-08-03T07:44:21.873Z,4.27
2022-08-03T07:46:48.310Z,3.10
2022-08-03T07:49:14.754Z,2.67
2022-08-03T07:51:41.247Z,2.87
2022-08-03T07:54:10.140Z,3.10
2022-08-03T07:56:37.501Z,3.20
2022-08-03T07:59:04.093Z,2.83
2022-08-03T08:01:32.782Z,2.80
2022-08-03T08:03:59.383Z,3.57
2022-08-03T08:06:25.796Z,3.20
2022-08-03T08:08:53.609Z,2.50
2022-08-03T08:11:22.227Z,2.60
2022-08-03T08:13:48.685Z,2.63
2022-08-03T08:16:15.122Z,3.03
2022-08-03T08:18:41.506Z,2.47
2022-08-03T08:21:08.689Z,2.67
2022-08-03T08:23:42.388Z,3.13
2022-08-03T08:26:11.007Z,2.80
2022-08-03T08:28:37.509Z,2.77
2022-08-03T08:31:04.064Z,3.07
2022-08-03T08:33:48.355Z,2.70
2022-08-03T08:36:17.632Z,2.70
2022-08-03T08:38:45.084Z,2.73
2022-08-03T08:41:13.053Z,2.97
2022-08-03T08:43:39.443Z,2.73
2022-08-03T08:46:08.294Z,2.73
2022-08-03T08:48:36.267Z,2.37
2022-08-03T08:51:03.190Z,2.30
2022-08-03T08:53:32.725Z,2.50
2022-08-03T08:56:01.466Z,2.53
2022-08-03T08:58:38.647Z,2.70
2022-08-03T09:01:05.772Z,2.30
2022-08-03T09:03:34.268Z,2.53
2022-08-03T09:06:02.129Z,2.37
2022-08-03T09:08:30.231Z,2.63
2022-08-03T09:10:56.863Z,2.60
2022-08-03T09:13:23.308Z,2.40
2022-08-03T09:16:15.929Z,2.87
2022-08-03T09:18:45.007Z,2.40
2022-08-03T09:21:32.462Z,2.57
2022-08-03T09:24:05.847Z,2.87
2022-08-03T09:26:36.076Z,2.73
2022-08-03T09:29:13.982Z,2.60
2022-08-03T09:31:44.532Z,3.27
2022-08-03T09:34:14.055Z,2.57
2022-08-03T09:36:48.885Z,2.40
2022-08-03T09:39:17.918Z,2.70
2022-08-03T09:41:46.950Z,2.87
2022-08-03T09:44:24.453Z,4.27
2022-08-03T09:46:56.243Z,2.37
2022-08-03T09:49:23.677Z,3.00
2022-08-03T09:52:33.020Z,3.10
2022-08-03T09:54:36.645Z,2.60
2022-08-03T09:57:03.149Z,3.43
2022-08-03T09:59:31.676Z,3.27
2022-08-03T10:01:59.928Z,3.27
2022-08-03T10:04:26.640Z,3.23
2022-08-03T10:07:23.652Z,2.80
2022-08-03T10:09:55.293Z,4.13
2022-08-03T10:12:21.967Z,3.03
2022-08-03T10:14:48.387Z,3.20
2022-08-03T10:17:14.958Z,3.57
2022-08-03T10:19:42.631Z,3.30
2022-08-03T10:22:15.294Z,2.53
2022-08-03T10:24:51.923Z,3.13
2022-08-03T10:27:19.826Z,2.50
2022-08-03T10:29:52.968Z,3.20
2022-08-03T10:32:27.982Z,2.67
2022-08-03T10:35:20.517Z,3.23
2022-08-03T10:38:01.618Z,3.77
2022-08-03T10:40:49.489Z,4.07
2022-08-03T10:43:28.663Z,3.10
2022-08-03T10:45:56.288Z,2.77
2022-08-03T10:48:24.063Z,3.00
2022-08-03T10:50:50.791Z,3.13
2022-08-03T10:53:34.514Z,3.20
2022-08-03T10:56:28.613Z,2.57
2022-08-03T10:59:06.346Z,2.73
2022-08-03T11:01:58.093Z,3.23
2022-08-03T11:04:26.583Z,3.60
2022-08-03T11:07:22.825Z,2.77
2022-08-03T11:09:55.065Z,2.80
2022-08-03T11:12:28.470Z,2.53
2022-08-03T11:15:06.184Z,2.77
2022-08-03T11:17:46.407Z,2.93
2022-08-03T11:20:44.047Z,2.87
2022-08-03T11:23:10.611Z,3.37
2022-08-03T11:26:08.494Z,3.13
2022-08-03T11:28:35.053Z,2.70
2022-08-03T11:31:48.162Z,2.60
2022-08-03T11:34:12.098Z,2.50
2022-08-03T11:37:16.582Z,2.50
2022-08-03T11:39:46.371Z,3.10
2022-08-03T11:42:22.038Z,2.20
2022-08-03T11:44:50.237Z,3.20
2022-08-03T11:47:18.419Z,2.97
2022-08-03T11:49:49.064Z,2.93
2022-08-03T11:52:17.141Z,2.40
2022-08-03T11:54:44.032Z,2.07
2022-08-03T11:57:10.431Z,2.83
2022-08-03T11:59:38.783Z,2.40
2022-08-03T12:02:13.119Z,2.63
2022-08-03T12:04:54.726Z,3.23
2022-08-03T12:08:02.707Z,3.53
2022-08-03T12:10:13.618Z,2.50
2022-08-03T12:12:46.196Z,2.40
2022-08-03T12:15:13.115Z,2.63
2022-08-03T12:17:41.591Z,3.07
2022-08-03T12:20:09.839Z,3.27
2022-08-03T12:22:38.791Z,1.97
2022-08-03T12:25:06.268Z,2.37
2022-08-03T12:27:32.804Z,2.50
2022-08-03T12:30:01.464Z,2.80
2022-08-03T12:32:31.715Z,2.83
2022-08-03T12:35:01.260Z,4.33
2022-08-03T12:37:28.826Z,3.27
2022-08-03T12:40:01.415Z,2.80
2022-08-03T12:42:32.735Z,1.87
2022-08-03T12:44:59.262Z,2.07
2022-08-03T12:47:25.710Z,3.27
2022-08-03T12:49:53.774Z,2.80
2022-08-03T12:52:22.111Z,2.77
2022-08-03T12:54:59.718Z,2.43
2022-08-03T12:57:39.967Z,2.30
2022-08-03T13:00:21.299Z,2.27
2022-08-03T13:03:26.607Z,2.77
2022-08-03T13:05:46.277Z,2.03
2022-08-03T13:08:20.401Z,2.47
2022-08-03T13:10:47.221Z,2.03
2022-08-03T13:13:13.857Z,2.70
2022-08-03T13:15:47.797Z,2.83
2022-08-03T13:18:17.368Z,2.20
2022-08-03T13:20:44.293Z,2.17
2022-08-03T13:23:13.928Z,2.37
2022-08-03T13:25:55.722Z,2.60
2022-08-03T13:28:22.897Z,2.80
2022-08-03T13:30:49.393Z,2.93
2022-08-03T13:33:15.864Z,2.97
2022-08-03T13:35:42.285Z,2.20
2022-08-03T13:38:08.723Z,2.50
2022-08-03T13:40:41.486Z,2.70
2022-08-03T13:43:08.411Z,2.77
2022-08-03T13:45:34.775Z,3.27
2022-08-03T13:48:01.311Z,3.03
2022-08-03T13:50:28.448Z,2.93
2022-08-03T13:52:54.949Z,2.73
2022-08-03T13:55:21.328Z,2.87
2022-08-03T13:58:06.347Z,2.53
2022-08-03T14:00:34.045Z,2.93
2022-08-03T14:03:07.944Z,2.63
2022-08-03T14:05:40.197Z,3.27
2022-08-03T14:08:07.137Z,3.37
2022-08-03T14:10:35.358Z,3.10
2022-08-03T14:13:01.881Z,2.77
2022-08-03T14:15:28.760Z,2.77
2022-08-03T14:17:56.303Z,2.90
2022-08-03T14:20:36.813Z,2.90
2022-08-03T14:23:12.689Z,2.77
2022-08-03T14:25:44.550Z,2.37
2022-08-03T14:28:17.865Z,2.60
2022-08-03T14:30:44.323Z,2.73
2022-08-03T14:33:10.785Z,2.80
2022-08-03T14:35:37.229Z,3.03
2022-08-03T14:38:03.649Z,2.77
2022-08-03T14:40:30.056Z,2.43
2022-08-03T14:42:56.570Z,2.27
2022-08-03T14:45:23.280Z,2.27
2022-08-03T14:49:02.761Z,2.93
2022-08-03T14:50:43.124Z,2.57
2022-08-03T14:53:12.481Z,2.33
2022-08-03T14:55:49.914Z,2.23
2022-08-03T14:58:19.584Z,2.37
2022-08-03T15:00:47.338Z,2.10
2022-08-03T15:03:15.885Z,2.67
2022-08-03T15:05:43.643Z,2.77
2022-08-03T15:08:10.043Z,2.20
2022-08-03T15:10:43.811Z,3.10
2022-08-03T15:13:12.996Z,2.20
2022-08-03T15:15:40.208Z,2.27
2022-08-03T15:18:07.175Z,2.80
2022-08-03T15:20:43.832Z,2.87
2022-08-03T15:23:11.532Z,2.50
2022-08-03T15:26:31.703Z,2.37
2022-08-03T15:28:24.399Z,3.17
2022-08-03T15:30:53.956Z,2.30
2022-08-03T15:33:20.869Z,2.50
2022-08-03T15:35:47.759Z,2.70
2022-08-03T15:38:14.342Z,3.23
2022-08-03T15:40:40.802Z,2.47
2022-08-03T15:43:07.464Z,2.13
2022-08-03T15:45:35.385Z,3.10
2022-08-03T15:48:03.172Z,3.07
2022-08-03T15:50:29.566Z,2.70
2022-08-03T15:52:56.662Z,2.83
2022-08-03T15:55:23.205Z,3.30
2022-08-03T15:59:04.410Z,3.17
2022-08-03T16:00:36.113Z,1.80
2022-08-03T16:03:02.549Z,2.40
2022-08-03T16:05:29.446Z,2.70
2022-08-03T16:07:58.591Z,3.07
2022-08-03T16:10:30.694Z,2.30
2022-08-03T16:12:58.887Z,3.10
2022-08-03T16:15:25.337Z,2.83
2022-08-03T16:17:51.841Z,3.77
2022-08-03T16:20:31.261Z,2.80
2022-08-03T16:23:10.574Z,2.60
2022-08-03T16:25:38.205Z,2.83
2022-08-03T16:28:08.204Z,3.17
2022-08-03T16:30:40.747Z,2.70
2022-08-03T16:33:07.163Z,2.87
2022-08-03T16:35:33.577Z,2.40
2022-08-03T16:38:00.306Z,3.37
2022-08-03T16:40:26.840Z,3.77
2022-08-03T16:42:53.270Z,3.60
2022-08-03T16:45:19.711Z,2.93
2022-08-03T16:47:46.146Z,3.23
2022-08-03T16:50:19.055Z,2.00
2022-08-03T16:52:47.332Z,2.23
2022-08-03T16:55:15.895Z,3.20
2022-08-03T16:57:58.796Z,2.77
2022-08-03T17:00:33.019Z,2.53
2022-08-03T17:03:04.325Z,3.00
2022-08-03T17:05:50.111Z,2.77
2022-08-03T17:08:26.915Z,3.13
2022-08-03T17:10:54.649Z,2.83
2022-08-03T17:13:22.517Z,2.83
2022-08-03T17:16:00.595Z,2.63
2022-08-03T17:18:32.429Z,2.80
2022-08-03T17:21:03.313Z,2.57
2022-08-03T17:23:50.161Z,2.90
2022-08-03T17:26:21.929Z,2.67
2022-08-03T17:28:57.418Z,2.70
2022-08-03T17:31:32.285Z,3.53
2022-08-03T17:34:08.628Z,2.47
2022-08-03T17:37:02.716Z,2.83
2022-08-03T17:39:48.431Z,2.83
2022-08-03T17:42:30.720Z,2.83
2022-08-03T17:45:01.923Z,2.73
2022-08-03T17:47:41.340Z,3.37
2022-08-03T17:50:23.929Z,2.83
2022-08-03T17:53:00.924Z,2.70
2022-08-03T17:55:55.832Z,2.40
2022-08-03T17:58:25.363Z,2.90
2022-08-03T18:02:00.351Z,2.57
2022-08-03T18:04:11.057Z,3.27
2022-08-03T18:06:55.821Z,2.63
2022-08-03T18:10:03.349Z,3.00
2022-08-03T18:12:17.351Z,3.13
2022-08-03T18:14:57.588Z,1.97
2022-08-03T18:17:55.179Z,2.33
2022-08-03T18:20:34.603Z,2.87
2022-08-03T18:23:08.682Z,1.97
2022-08-03T18:25:45.239Z,2.17
2022-08-03T18:28:16.438Z,2.60
2022-08-03T18:30:53.936Z,3.07
2022-08-03T18:34:16.859Z,2.93
2022-08-03T18:36:21.806Z,2.33
2022-08-03T18:38:57.341Z,3.23
2022-08-03T18:41:33.562Z,2.90
2022-08-03T18:44:07.829Z,2.40
2022-08-03T18:46:42.121Z,2.37
2022-08-03T18:49:25.173Z,2.93
2022-08-03T18:52:15.782Z,2.40
2022-08-03T18:55:19.709Z,2.57
2022-08-03T18:57:59.558Z,2.90
2022-08-03T19:00:42.314Z,2.50
2022-08-03T19:03:23.813Z,2.97
2022-08-03T19:06:07.726Z,2.90
2022-08-03T19:08:57.630Z,2.83
2022-08-03T19:12:12.310Z,3.20
2022-08-03T19:14:39.330Z,2.37
2022-08-03T19:17:11.246Z,3.40
2022-08-03T19:19:44.516Z,2.80
2022-08-03T19:22:16.269Z,2.70
2022-08-03T19:24:45.425Z,2.43
2022-08-03T19:27:12.764Z,2.50
2022-08-03T19:29:58.556Z,2.80
2022-08-03T19:32:29.131Z,2.80
2022-08-03T19:34:56.816Z,2.30
2022-08-03T19:37:27.527Z,2.37
2022-08-03T19:40:05.734Z,2.97
2022-08-03T19:42:42.013Z,3.23
2022-08-03T19:45:11.312Z,2.70
2022-08-03T19:47:47.488Z,2.90
2022-08-03T19:50:15.666Z,2.63
2022-08-03T19:52:46.933Z,2.43
2022-08-03T19:55:16.645Z,3.00
2022-08-03T19:57:46.024Z,3.20
2022-08-03T20:00:13.962Z,3.27
2022-08-03T20:02:41.460Z,2.60
2022-08-03T20:05:15.019Z,3.00
2022-08-03T20:07:42.337Z,2.93
2022-08-03T20:10:15.364Z,3.17
2022-08-03T20:12:44.460Z,2.90
2022-08-03T20:15:11.653Z,2.90
2022-08-03T20:17:55.902Z,2.93
2022-08-03T20:20:34.015Z,2.90
2022-08-03T20:23:06.895Z,3.40
2022-08-03T20:25:48.983Z,3.33
2022-08-03T20:28:30.592Z,2.80
2022-08-03T20:30:57.662Z,2.93
2022-08-03T20:33:27.924Z,3.50
2022-08-03T20:36:13.744Z,3.27
2022-08-03T20:38:46.855Z,2.87
2022-08-03T20:41:14.427Z,3.67
2022-08-03T20:43:41.656Z,2.30
2022-08-03T20:46:32.745Z,3.13
2022-08-03T20:48:57.192Z,2.87
2022-08-03T20:54:22.992Z,2.73
2022-08-03T20:56:58.874Z,3.33
2022-08-03T20:59:38.496Z,3.10
2022-08-03T21:02:19.818Z,2.50
2022-08-03T21:04:57.321Z,2.80
2022-08-03T21:07:24.162Z,3.90
2022-08-03T21:09:52.793Z,3.53
2022-08-03T21:12:31.921Z,2.97
2022-08-03T21:13:07.585Z,2.97
2022-08-03T21:15:09.080Z,2.60
2022-08-03T21:17:41.453Z,3.07
2022-08-03T21:20:10.220Z,2.17
2022-08-03T21:22:43.677Z,2.60
2022-08-03T21:25:10.984Z,2.60
2022-08-03T21:27:37.556Z,2.67
2022-08-03T21:30:09.867Z,2.73
2022-08-03T21:32:40.096Z,2.60
2022-08-03T21:35:09.971Z,3.17
2022-08-03T21:37:38.237Z,2.93
2022-08-03T21:40:05.190Z,2.63
2022-08-03T21:42:31.619Z,3.10
2022-08-03T21:44:58.171Z,3.10
2022-08-03T21:47:25.407Z,2.73
2022-08-03T21:50:06.227Z,3.30
2022-08-03T21:52:40.822Z,2.43
2022-08-03T21:55:07.723Z,3.23
2022-08-03T21:57:38.423Z,3.00
2022-08-03T22:00:16.998Z,3.07
2022-08-03T22:02:54.814Z,3.23
2022-08-03T22:05:42.402Z,3.00
2022-08-03T22:08:09.493Z,3.07
2022-08-03T22:10:36.760Z,2.60
2022-08-03T22:13:03.369Z,2.80
2022-08-03T22:15:30.608Z,3.40
2022-08-03T22:17:57.562Z,3.77
2022-08-03T22:20:25.029Z,2.90
2022-08-03T22:22:57.122Z,3.10
2022-08-03T22:25:31.941Z,2.97
2022-08-03T22:28:01.569Z,2.93
2022-08-03T22:30:28.953Z,3.13
2022-08-03T22:32:56.274Z,3.60
2022-08-03T22:35:25.634Z,3.13
2022-08-03T22:37:54.504Z,3.67
2022-08-03T22:40:21.405Z,3.47
2022-08-03T22:42:51.331Z,4.23
2022-08-03T22:46:07.946Z,3.60
2022-08-03T22:48:08.354Z,4.27
2022-08-03T22:50:35.030Z,3.47
2022-08-03T22:53:01.786Z,3.70
2022-08-03T22:55:28.304Z,3.97
2022-08-03T22:57:56.225Z,4.27
2022-08-03T23:00:23.655Z,3.40
2022-08-03T23:02:51.797Z,3.03
2022-08-03T23:06:01.113Z,3.03
2022-08-03T23:08:14.580Z,2.97
2022-08-03T23:10:46.847Z,3.20
2022-08-03T23:13:16.506Z,2.90
2022-08-03T23:15:56.350Z,3.23
2022-08-03T23:18:24.430Z,3.93
2022-08-03T23:20:57.694Z,3.87
2022-08-03T23:23:24.448Z,3.80
2022-08-03T23:25:51.896Z,3.33
2022-08-03T23:28:19.183Z,3.90
2022-08-03T23:30:46.817Z,3.87
2022-08-03T23:33:14.883Z,4.53
2022-08-03T23:36:29.846Z,3.40
2022-08-03T23:38:44.072Z,3.23
2022-08-03T23:41:11.464Z,3.40
2022-08-03T23:43:50.738Z,3.10
2022-08-03T23:46:20.443Z,3.00
2022-08-03T23:48:46.836Z,3.37
2022-08-03T23:51:23.437Z,2.90
2022-08-03T23:54:03.166Z,2.83
2022-08-03T23:56:48.259Z,3.17
2022-08-03T23:59:21.690Z,2.70
